sensor_id;sensor_type;location;lat;lon;timestamp;P1;durP1;ratioP1;P2;durP2;ratioP2
23678;SDS011;12016;51.668;6.874;2022-12-13T00:06:03;38.85;;;27.10;;
23678;SDS011;12016;51.668;6.874;2022-12-13T00:12:06;37.67;;;26.30;;
23678;SDS011;12016;51.668;6.874;2022-12-13T00:18:08;39.08;;;25.92;;
23678;SDS011;12016;51.668;6.874;2022-12-13T00:24:09;37.03;;;25.77;;
23678;SDS011;12016;51.668;6.874;2022-12-13T00:30:11;38.80;;;26.17;;
23678;SDS011;12016;51.668;6.874;2022-12-13T00:36:13;35.90;;;26.38;;
23678;SDS011;12016;51.668;6.874;2022-12-13T00:42:16;45.30;;;31.73;;
23678;SDS011;12016;51.668;6.874;2022-12-13T00:48:18;47.38;;;33.08;;
23678;SDS011;12016;51.668;6.874;2022-12-13T00:54:20;43.53;;;31.48;;
23678;SDS011;12016;51.668;6.874;2022-12-13T01:00:21;37.58;;;28.27;;
23678;SDS011;12016;51.668;6.874;2022-12-13T01:06:27;40.40;;;29.48;;
23678;SDS011;12016;51.668;6.874;2022-12-13T01:12:34;37.30;;;27.85;;
23678;SDS011;12016;51.668;6.874;2022-12-13T01:18:36;39.67;;;28.30;;
23678;SDS011;12016;51.668;6.874;2022-12-13T01:24:40;38.10;;;27.83;;
23678;SDS011;12016;51.668;6.874;2022-12-13T01:30:41;41.17;;;27.88;;
23678;SDS011;12016;51.668;6.874;2022-12-13T01:36:44;36.65;;;27.02;;
23678;SDS011;12016;51.668;6.874;2022-12-13T01:42:47;37.72;;;26.80;;
23678;SDS011;12016;51.668;6.874;2022-12-13T01:48:50;38.75;;;26.80;;
23678;SDS011;12016;51.668;6.874;2022-12-13T01:54:59;35.53;;;26.13;;
23678;SDS011;12016;51.668;6.874;2022-12-13T02:01:02;37.50;;;26.23;;
23678;SDS011;12016;51.668;6.874;2022-12-13T02:07:04;37.00;;;26.92;;
23678;SDS011;12016;51.668;6.874;2022-12-13T02:13:09;36.58;;;26.60;;
23678;SDS011;12016;51.668;6.874;2022-12-13T02:32:00;33.80;;;25.20;;
23678;SDS011;12016;51.668;6.874;2022-12-13T02:38:12;37.00;;;26.52;;
23678;SDS011;12016;51.668;6.874;2022-12-13T02:44:18;37.40;;;26.77;;
23678;SDS011;12016;51.668;6.874;2022-12-13T02:50:24;37.63;;;26.73;;
23678;SDS011;12016;51.668;6.874;2022-12-13T02:56:29;38.72;;;27.63;;
23678;SDS011;12016;51.668;6.874;2022-12-13T03:09:13;38.28;;;26.70;;
23678;SDS011;12016;51.668;6.874;2022-12-13T03:21:52;42.92;;;31.15;;
23678;SDS011;12016;51.668;6.874;2022-12-13T03:27:54;39.03;;;29.27;;
23678;SDS011;12016;51.668;6.874;2022-12-13T03:33:56;39.60;;;28.08;;
23678;SDS011;12016;51.668;6.874;2022-12-13T03:39:58;39.35;;;27.73;;
23678;SDS011;12016;51.668;6.874;2022-12-13T03:46:00;36.45;;;26.75;;
23678;SDS011;12016;51.668;6.874;2022-12-13T03:52:02;33.30;;;25.42;;
23678;SDS011;12016;51.668;6.874;2022-12-13T03:58:05;38.03;;;27.00;;
23678;SDS011;12016;51.668;6.874;2022-12-13T04:04:08;40.10;;;27.75;;
23678;SDS011;12016;51.668;6.874;2022-12-13T04:10:09;37.88;;;27.65;;
23678;SDS011;12016;51.668;6.874;2022-12-13T04:16:11;40.65;;;28.77;;
23678;SDS011;12016;51.668;6.874;2022-12-13T04:22:13;39.80;;;27.48;;
23678;SDS011;12016;51.668;6.874;2022-12-13T04:28:16;39.35;;;27.00;;
23678;SDS011;12016;51.668;6.874;2022-12-13T04:34:18;37.63;;;27.98;;
23678;SDS011;12016;51.668;6.874;2022-12-13T04:40:20;42.38;;;28.90;;
23678;SDS011;12016;51.668;6.874;2022-12-13T04:46:21;36.75;;;27.83;;
23678;SDS011;12016;51.668;6.874;2022-12-13T04:52:23;38.42;;;27.70;;
23678;SDS011;12016;51.668;6.874;2022-12-13T04:58:26;40.10;;;29.13;;
23678;SDS011;12016;51.668;6.874;2022-12-13T05:04:28;41.53;;;29.17;;
23678;SDS011;12016;51.668;6.874;2022-12-13T05:10:33;40.33;;;28.40;;
23678;SDS011;12016;51.668;6.874;2022-12-13T05:16:38;39.70;;;28.83;;
23678;SDS011;12016;51.668;6.874;2022-12-13T05:22:40;40.97;;;29.30;;
23678;SDS011;12016;51.668;6.874;2022-12-13T05:28:41;40.40;;;29.17;;
23678;SDS011;12016;51.668;6.874;2022-12-13T05:34:43;40.05;;;29.30;;
23678;SDS011;12016;51.668;6.874;2022-12-13T05:40:45;39.55;;;29.00;;
23678;SDS011;12016;51.668;6.874;2022-12-13T05:46:47;42.65;;;29.02;;
23678;SDS011;12016;51.668;6.874;2022-12-13T05:52:50;40.08;;;29.23;;
23678;SDS011;12016;51.668;6.874;2022-12-13T05:58:52;42.55;;;29.80;;
23678;SDS011;12016;51.668;6.874;2022-12-13T06:04:55;41.88;;;30.02;;
23678;SDS011;12016;51.668;6.874;2022-12-13T06:10:58;40.67;;;29.25;;
23678;SDS011;12016;51.668;6.874;2022-12-13T06:17:01;41.10;;;29.52;;
23678;SDS011;12016;51.668;6.874;2022-12-13T06:23:04;42.17;;;30.30;;
23678;SDS011;12016;51.668;6.874;2022-12-13T06:29:06;41.47;;;29.55;;
23678;SDS011;12016;51.668;6.874;2022-12-13T06:35:07;72.88;;;51.50;;
23678;SDS011;12016;51.668;6.874;2022-12-13T06:41:14;59.97;;;44.00;;
23678;SDS011;12016;51.668;6.874;2022-12-13T06:47:17;47.83;;;35.13;;
23678;SDS011;12016;51.668;6.874;2022-12-13T06:53:19;42.60;;;29.90;;
23678;SDS011;12016;51.668;6.874;2022-12-13T06:59:21;43.40;;;30.08;;
23678;SDS011;12016;51.668;6.874;2022-12-13T07:05:23;39.22;;;28.17;;
23678;SDS011;12016;51.668;6.874;2022-12-13T07:11:26;39.47;;;29.02;;
23678;SDS011;12016;51.668;6.874;2022-12-13T07:17:30;37.28;;;28.20;;
23678;SDS011;12016;51.668;6.874;2022-12-13T07:23:35;39.78;;;27.88;;
23678;SDS011;12016;51.668;6.874;2022-12-13T07:29:38;40.28;;;27.50;;
23678;SDS011;12016;51.668;6.874;2022-12-13T07:35:40;37.05;;;27.33;;
23678;SDS011;12016;51.668;6.874;2022-12-13T07:41:42;38.17;;;27.35;;
23678;SDS011;12016;51.668;6.874;2022-12-13T07:47:44;38.40;;;28.55;;
23678;SDS011;12016;51.668;6.874;2022-12-13T07:53:46;40.08;;;29.38;;
23678;SDS011;12016;51.668;6.874;2022-12-13T07:59:47;39.78;;;27.70;;
23678;SDS011;12016;51.668;6.874;2022-12-13T08:05:56;40.20;;;28.52;;
23678;SDS011;12016;51.668;6.874;2022-12-13T08:11:59;37.92;;;27.83;;
23678;SDS011;12016;51.668;6.874;2022-12-13T08:18:01;43.45;;;32.90;;
23678;SDS011;12016;51.668;6.874;2022-12-13T08:24:04;43.72;;;31.25;;
23678;SDS011;12016;51.668;6.874;2022-12-13T08:30:10;39.85;;;29.40;;
23678;SDS011;12016;51.668;6.874;2022-12-13T08:36:13;39.95;;;29.25;;
23678;SDS011;12016;51.668;6.874;2022-12-13T08:42:16;38.03;;;27.90;;
23678;SDS011;12016;51.668;6.874;2022-12-13T08:48:20;42.28;;;31.60;;
23678;SDS011;12016;51.668;6.874;2022-12-13T08:54:22;44.58;;;31.10;;
23678;SDS011;12016;51.668;6.874;2022-12-13T09:00:24;38.08;;;29.15;;
23678;SDS011;12016;51.668;6.874;2022-12-13T09:06:26;41.10;;;30.48;;
23678;SDS011;12016;51.668;6.874;2022-12-13T09:12:27;41.08;;;30.17;;
23678;SDS011;12016;51.668;6.874;2022-12-13T09:18:29;41.55;;;29.95;;
23678;SDS011;12016;51.668;6.874;2022-12-13T09:24:34;38.65;;;28.17;;
23678;SDS011;12016;51.668;6.874;2022-12-13T09:30:37;42.80;;;30.92;;
23678;SDS011;12016;51.668;6.874;2022-12-13T09:36:39;40.72;;;30.83;;
23678;SDS011;12016;51.668;6.874;2022-12-13T09:42:42;41.97;;;30.23;;
23678;SDS011;12016;51.668;6.874;2022-12-13T09:48:52;42.60;;;31.00;;
23678;SDS011;12016;51.668;6.874;2022-12-13T09:54:57;43.45;;;30.77;;
23678;SDS011;12016;51.668;6.874;2022-12-13T10:01:00;37.72;;;27.70;;
23678;SDS011;12016;51.668;6.874;2022-12-13T10:07:19;32.75;;;25.52;;
23678;SDS011;12016;51.668;6.874;2022-12-13T10:19:42;31.35;;;24.10;;
23678;SDS011;12016;51.668;6.874;2022-12-13T10:25:51;32.58;;;25.08;;
23678;SDS011;12016;51.668;6.874;2022-12-13T10:44:07;32.35;;;25.65;;
23678;SDS011;12016;51.668;6.874;2022-12-13T10:50:20;32.20;;;25.42;;
23678;SDS011;12016;51.668;6.874;2022-12-13T10:56:33;34.58;;;25.75;;
23678;SDS011;12016;51.668;6.874;2022-12-13T11:02:44;34.45;;;25.98;;
23678;SDS011;12016;51.668;6.874;2022-12-13T11:08:57;33.03;;;25.52;;
23678;SDS011;12016;51.668;6.874;2022-12-13T11:15:00;35.30;;;25.75;;
23678;SDS011;12016;51.668;6.874;2022-12-13T11:21:07;32.03;;;26.38;;
23678;SDS011;12016;51.668;6.874;2022-12-13T11:33:54;33.13;;;26.35;;
23678;SDS011;12016;51.668;6.874;2022-12-13T11:46:12;31.77;;;25.55;;
23678;SDS011;12016;51.668;6.874;2022-12-13T11:58:32;30.63;;;24.58;;
23678;SDS011;12016;51.668;6.874;2022-12-13T12:05:09;36.35;;;25.90;;
23678;SDS011;12016;51.668;6.874;2022-12-13T12:17:48;30.02;;;24.23;;
23678;SDS011;12016;51.668;6.874;2022-12-13T12:23:53;33.40;;;25.00;;
23678;SDS011;12016;51.668;6.874;2022-12-13T12:36:32;32.72;;;24.63;;
23678;SDS011;12016;51.668;6.874;2022-12-13T12:43:48;31.05;;;23.98;;
23678;SDS011;12016;51.668;6.874;2022-12-13T12:49:46;30.85;;;25.27;;
23678;SDS011;12016;51.668;6.874;2022-12-13T12:56:15;31.00;;;24.45;;
23678;SDS011;12016;51.668;6.874;2022-12-13T13:02:40;32.17;;;25.30;;
23678;SDS011;12016;51.668;6.874;2022-12-13T13:08:55;34.83;;;25.95;;
23678;SDS011;12016;51.668;6.874;2022-12-13T13:15:18;34.13;;;25.33;;
23678;SDS011;12016;51.668;6.874;2022-12-13T13:21:33;31.73;;;24.75;;
23678;SDS011;12016;51.668;6.874;2022-12-13T13:27:44;32.63;;;25.65;;
23678;SDS011;12016;51.668;6.874;2022-12-13T13:33:50;32.63;;;25.85;;
23678;SDS011;12016;51.668;6.874;2022-12-13T13:58:32;33.05;;;25.92;;
23678;SDS011;12016;51.668;6.874;2022-12-13T14:24:46;33.42;;;25.92;;
23678;SDS011;12016;51.668;6.874;2022-12-13T14:30:49;34.45;;;26.23;;
23678;SDS011;12016;51.668;6.874;2022-12-13T14:36:58;32.30;;;25.25;;
23678;SDS011;12016;51.668;6.874;2022-12-13T14:43:30;30.88;;;25.10;;
23678;SDS011;12016;51.668;6.874;2022-12-13T14:49:40;33.42;;;25.73;;
23678;SDS011;12016;51.668;6.874;2022-12-13T14:55:46;35.45;;;25.10;;
23678;SDS011;12016;51.668;6.874;2022-12-13T15:02:04;34.65;;;26.70;;
23678;SDS011;12016;51.668;6.874;2022-12-13T15:08:09;34.47;;;25.75;;
23678;SDS011;12016;51.668;6.874;2022-12-13T15:14:16;35.47;;;27.38;;
23678;SDS011;12016;51.668;6.874;2022-12-13T15:26:24;35.58;;;26.85;;
23678;SDS011;12016;51.668;6.874;2022-12-13T15:32:27;37.30;;;27.25;;
23678;SDS011;12016;51.668;6.874;2022-12-13T15:38:29;38.33;;;27.92;;
23678;SDS011;12016;51.668;6.874;2022-12-13T15:44:32;37.10;;;27.90;;
23678;SDS011;12016;51.668;6.874;2022-12-13T15:50:41;35.67;;;28.15;;
23678;SDS011;12016;51.668;6.874;2022-12-13T16:03:23;39.67;;;29.20;;
23678;SDS011;12016;51.668;6.874;2022-12-13T16:09:27;37.42;;;28.95;;
23678;SDS011;12016;51.668;6.874;2022-12-13T16:15:47;37.10;;;28.70;;
23678;SDS011;12016;51.668;6.874;2022-12-13T16:21:51;67.63;;;49.25;;
23678;SDS011;12016;51.668;6.874;2022-12-13T16:27:53;39.63;;;29.65;;
23678;SDS011;12016;51.668;6.874;2022-12-13T16:33:55;35.03;;;26.98;;
23678;SDS011;12016;51.668;6.874;2022-12-13T16:39:58;35.63;;;26.92;;
23678;SDS011;12016;51.668;6.874;2022-12-13T16:46:04;37.13;;;27.00;;
23678;SDS011;12016;51.668;6.874;2022-12-13T16:52:07;33.28;;;26.20;;
23678;SDS011;12016;51.668;6.874;2022-12-13T16:58:13;39.55;;;26.20;;
23678;SDS011;12016;51.668;6.874;2022-12-13T17:04:35;32.42;;;25.77;;
23678;SDS011;12016;51.668;6.874;2022-12-13T17:10:40;32.40;;;26.15;;
23678;SDS011;12016;51.668;6.874;2022-12-13T17:16:44;32.78;;;25.67;;
23678;SDS011;12016;51.668;6.874;2022-12-13T17:22:46;32.10;;;25.17;;
23678;SDS011;12016;51.668;6.874;2022-12-13T17:28:48;35.63;;;25.63;;
23678;SDS011;12016;51.668;6.874;2022-12-13T17:34:50;36.17;;;25.90;;
23678;SDS011;12016;51.668;6.874;2022-12-13T17:40:52;32.67;;;25.73;;
23678;SDS011;12016;51.668;6.874;2022-12-13T17:46:55;31.58;;;23.90;;
23678;SDS011;12016;51.668;6.874;2022-12-13T17:52:56;33.03;;;25.83;;
23678;SDS011;12016;51.668;6.874;2022-12-13T17:58:58;34.72;;;25.48;;
23678;SDS011;12016;51.668;6.874;2022-12-13T18:05:00;32.97;;;25.60;;
23678;SDS011;12016;51.668;6.874;2022-12-13T18:11:02;32.25;;;24.27;;
23678;SDS011;12016;51.668;6.874;2022-12-13T18:17:24;30.10;;;23.55;;
23678;SDS011;12016;51.668;6.874;2022-12-13T18:23:36;34.80;;;26.20;;
23678;SDS011;12016;51.668;6.874;2022-12-13T18:29:38;32.28;;;24.77;;
23678;SDS011;12016;51.668;6.874;2022-12-13T18:35:43;30.40;;;24.10;;
23678;SDS011;12016;51.668;6.874;2022-12-13T18:41:45;32.80;;;26.38;;
23678;SDS011;12016;51.668;6.874;2022-12-13T18:47:46;33.67;;;24.25;;
23678;SDS011;12016;51.668;6.874;2022-12-13T18:53:49;30.10;;;23.38;;
23678;SDS011;12016;51.668;6.874;2022-12-13T18:59:51;30.08;;;23.88;;
23678;SDS011;12016;51.668;6.874;2022-12-13T19:05:56;29.70;;;23.42;;
23678;SDS011;12016;51.668;6.874;2022-12-13T19:11:59;31.23;;;23.42;;
23678;SDS011;12016;51.668;6.874;2022-12-13T19:18:02;29.90;;;23.23;;
23678;SDS011;12016;51.668;6.874;2022-12-13T19:24:03;30.40;;;23.38;;
23678;SDS011;12016;51.668;6.874;2022-12-13T19:30:06;29.75;;;22.83;;
23678;SDS011;12016;51.668;6.874;2022-12-13T19:36:09;32.17;;;23.95;;
23678;SDS011;12016;51.668;6.874;2022-12-13T19:42:12;28.80;;;22.60;;
23678;SDS011;12016;51.668;6.874;2022-12-13T19:48:13;30.45;;;23.30;;
23678;SDS011;12016;51.668;6.874;2022-12-13T19:54:15;32.40;;;25.40;;
23678;SDS011;12016;51.668;6.874;2022-12-13T20:00:17;31.95;;;24.60;;
23678;SDS011;12016;51.668;6.874;2022-12-13T20:06:22;38.60;;;29.33;;
23678;SDS011;12016;51.668;6.874;2022-12-13T20:12:24;33.53;;;25.73;;
23678;SDS011;12016;51.668;6.874;2022-12-13T20:18:26;32.95;;;25.98;;
23678;SDS011;12016;51.668;6.874;2022-12-13T20:24:28;32.75;;;24.95;;
23678;SDS011;12016;51.668;6.874;2022-12-13T20:30:30;30.88;;;23.75;;
23678;SDS011;12016;51.668;6.874;2022-12-13T20:36:33;32.45;;;24.85;;
23678;SDS011;12016;51.668;6.874;2022-12-13T20:42:35;34.72;;;26.60;;
23678;SDS011;12016;51.668;6.874;2022-12-13T20:48:45;35.08;;;26.90;;
23678;SDS011;12016;51.668;6.874;2022-12-13T20:54:52;33.83;;;25.67;;
23678;SDS011;12016;51.668;6.874;2022-12-13T21:00:53;32.00;;;25.25;;
23678;SDS011;12016;51.668;6.874;2022-12-13T21:06:55;32.05;;;25.85;;
23678;SDS011;12016;51.668;6.874;2022-12-13T21:12:57;31.52;;;25.15;;
23678;SDS011;12016;51.668;6.874;2022-12-13T21:19:00;33.55;;;24.30;;
23678;SDS011;12016;51.668;6.874;2022-12-13T21:25:02;30.17;;;24.15;;
23678;SDS011;12016;51.668;6.874;2022-12-13T21:31:07;32.65;;;23.33;;
23678;SDS011;12016;51.668;6.874;2022-12-13T21:37:13;29.92;;;23.42;;
23678;SDS011;12016;51.668;6.874;2022-12-13T21:43:15;31.33;;;24.92;;
23678;SDS011;12016;51.668;6.874;2022-12-13T21:49:18;31.20;;;23.63;;
23678;SDS011;12016;51.668;6.874;2022-12-13T21:55:21;30.30;;;24.02;;
23678;SDS011;12016;51.668;6.874;2022-12-13T22:08:11;28.45;;;22.15;;
23678;SDS011;12016;51.668;6.874;2022-12-13T22:14:13;28.63;;;21.65;;
23678;SDS011;12016;51.668;6.874;2022-12-13T22:20:15;29.65;;;21.85;;
23678;SDS011;12016;51.668;6.874;2022-12-13T22:26:17;28.80;;;22.80;;
23678;SDS011;12016;51.668;6.874;2022-12-13T22:32:19;28.52;;;23.00;;
23678;SDS011;12016;51.668;6.874;2022-12-13T22:38:21;40.05;;;26.90;;
23678;SDS011;12016;51.668;6.874;2022-12-13T22:44:24;39.53;;;27.48;;
23678;SDS011;12016;51.668;6.874;2022-12-13T22:50:25;40.72;;;27.88;;
23678;SDS011;12016;51.668;6.874;2022-12-13T22:56:28;30.15;;;23.27;;
23678;SDS011;12016;51.668;6.874;2022-12-13T23:02:30;29.52;;;22.52;;
23678;SDS011;12016;51.668;6.874;2022-12-13T23:08:32;27.67;;;21.20;;
23678;SDS011;12016;51.668;6.874;2022-12-13T23:14:37;26.58;;;20.40;;
23678;SDS011;12016;51.668;6.874;2022-12-13T23:20:39;27.70;;;21.42;;
23678;SDS011;12016;51.668;6.874;2022-12-13T23:26:41;28.00;;;21.40;;
23678;SDS011;12016;51.668;6.874;2022-12-13T23:32:43;26.55;;;20.98;;
23678;SDS011;12016;51.668;6.874;2022-12-13T23:38:46;25.90;;;20.40;;
23678;SDS011;12016;51.668;6.874;2022-12-13T23:44:49;26.20;;;20.38;;
23678;SDS011;12016;51.668;6.874;2022-12-13T23:50:52;26.77;;;20.63;;
23678;SDS011;12016;51.668;6.874;2022-12-13T23:56:55;25.38;;;19.67;;
